createdAt,value
2022-10-12T00:01:03.369Z,12.02
2022-10-12T00:03:31.945Z,12.06
2022-10-12T00:06:05.385Z,11.98
2022-10-12T00:08:36.032Z,12.04
2022-10-12T00:11:04.120Z,11.95
2022-10-12T00:13:32.778Z,11.93
2022-10-12T00:16:04.288Z,12.02
2022-10-12T00:18:32.945Z,12.06
2022-10-12T00:21:05.579Z,12.04
2022-10-12T00:23:36.431Z,12.07
2022-10-12T00:26:06.484Z,12.06
2022-10-12T00:28:35.470Z,12.10
2022-10-12T00:31:03.866Z,12.13
2022-10-12T00:33:32.601Z,12.13
2022-10-12T00:36:00.658Z,12.14
2022-10-12T00:38:28.746Z,12.19
2022-10-12T00:40:58.388Z,12.18
2022-10-12T00:43:29.292Z,12.22
2022-10-12T00:45:58.138Z,12.20
2022-10-12T00:48:27.139Z,12.21
2022-10-12T00:50:55.858Z,12.24
2022-10-12T00:53:27.946Z,12.19
2022-10-12T00:56:02.752Z,12.21
2022-10-12T00:58:31.708Z,12.24
2022-10-12T01:01:02.636Z,12.26
2022-10-12T01:03:31.390Z,12.32
2022-10-12T01:05:59.977Z,12.36
2022-10-12T01:08:29.913Z,12.40
2022-10-12T01:10:59.546Z,12.44
2022-10-12T01:13:28.871Z,12.44
2022-10-12T01:16:04.749Z,12.44
2022-10-12T01:18:39.843Z,12.35
2022-10-12T01:21:14.488Z,12.38
2022-10-12T01:24:22.344Z,12.40
2022-10-12T01:27:03.891Z,12.39
2022-10-12T01:30:03.680Z,12.37
2022-10-12T01:32:36.012Z,12.38
2022-10-12T01:35:11.535Z,12.34
2022-10-12T01:37:48.365Z,12.34
2022-10-12T01:40:21.544Z,12.32
2022-10-12T01:42:50.319Z,12.24
2022-10-12T01:45:20.908Z,12.23
2022-10-12T01:47:53.755Z,12.28
2022-10-12T01:50:26.218Z,12.33
2022-10-12T01:53:03.249Z,12.28
2022-10-12T01:55:40.159Z,12.31
2022-10-12T01:58:22.275Z,12.29
2022-10-12T02:01:00.744Z,12.25
2022-10-12T02:03:35.482Z,12.25
2022-10-12T02:06:10.457Z,12.29
2022-10-12T02:08:43.343Z,12.26
2022-10-12T02:11:13.635Z,12.20
2022-10-12T02:13:45.393Z,12.29
2022-10-12T02:16:19.018Z,12.19
2022-10-12T02:18:51.961Z,12.16
2022-10-12T02:21:23.975Z,12.16
2022-10-12T02:23:54.756Z,12.22
2022-10-12T02:26:23.297Z,12.22
2022-10-12T02:28:53.052Z,12.24
2022-10-12T02:31:33.854Z,12.30
2022-10-12T02:34:06.241Z,11.89
2022-10-12T02:36:41.140Z,12.29
2022-10-12T02:39:14.694Z,12.37
2022-10-12T02:41:46.640Z,12.41
2022-10-12T02:44:19.016Z,12.42
2022-10-12T02:46:50.078Z,12.35
2022-10-12T02:49:20.122Z,12.46
2022-10-12T02:51:48.828Z,12.47
2022-10-12T02:54:17.022Z,12.47
2022-10-12T02:56:46.294Z,12.43
2022-10-12T02:59:15.205Z,12.53
2022-10-12T03:01:43.743Z,12.52
2022-10-12T03:04:13.516Z,12.52
2022-10-12T03:06:42.934Z,12.45
2022-10-12T03:09:14.404Z,12.60
2022-10-12T03:11:44.034Z,12.63
2022-10-12T03:14:12.834Z,12.61
2022-10-12T03:16:41.486Z,12.67
2022-10-12T03:19:09.885Z,12.71
2022-10-12T03:21:39.840Z,12.72
2022-10-12T03:24:08.297Z,12.75
2022-10-12T03:26:36.603Z,12.77
2022-10-12T03:29:05.394Z,12.70
2022-10-12T03:31:33.658Z,12.69
2022-10-12T03:34:02.935Z,12.72
2022-10-12T03:36:31.055Z,12.78
2022-10-12T03:39:00.596Z,12.80
2022-10-12T03:41:28.705Z,12.84
2022-10-12T03:43:56.622Z,12.87
2022-10-12T03:46:24.759Z,12.89
2022-10-12T03:48:53.117Z,12.86
2022-10-12T03:51:21.370Z,12.89
2022-10-12T03:53:49.625Z,12.83
2022-10-12T03:56:19.261Z,12.83
2022-10-12T03:58:47.696Z,12.88
2022-10-12T04:01:16.105Z,12.91
2022-10-12T04:03:44.427Z,12.89
2022-10-12T04:06:13.130Z,12.82
2022-10-12T04:08:41.518Z,12.83
2022-10-12T04:11:11.694Z,12.79
2022-10-12T04:13:44.022Z,12.71
2022-10-12T04:16:12.243Z,12.69
2022-10-12T04:18:40.335Z,12.63
2022-10-12T04:21:14.938Z,12.60
2022-10-12T04:23:43.933Z,12.60
2022-10-12T04:26:12.110Z,12.58
2022-10-12T04:28:41.695Z,12.51
2022-10-12T04:31:09.913Z,12.48
2022-10-12T04:33:38.146Z,12.43
2022-10-12T04:36:06.663Z,12.31
2022-10-12T04:38:35.033Z,12.40
2022-10-12T04:41:03.286Z,12.42
2022-10-12T04:43:31.604Z,12.41
2022-10-12T04:46:01.862Z,12.49
2022-10-12T04:48:29.831Z,12.49
2022-10-12T04:50:57.941Z,12.55
2022-10-12T04:53:26.255Z,12.59
2022-10-12T04:55:54.334Z,12.48
2022-10-12T04:58:22.703Z,12.44
2022-10-12T05:00:50.956Z,12.45
2022-10-12T05:03:20.677Z,12.52
2022-10-12T05:05:48.949Z,12.57
2022-10-12T05:08:17.274Z,12.62
2022-10-12T05:10:46.288Z,12.64
2022-10-12T05:13:14.930Z,12.68
2022-10-12T05:15:44.073Z,12.68
2022-10-12T05:18:12.320Z,12.64
2022-10-12T05:20:42.036Z,12.66
2022-10-12T05:23:11.997Z,12.68
2022-10-12T05:25:40.181Z,12.71
2022-10-12T05:28:09.036Z,12.59
2022-10-12T05:30:37.312Z,12.67
2022-10-12T05:33:05.629Z,12.61
2022-10-12T05:35:34.002Z,12.62
2022-10-12T05:38:04.237Z,12.65
2022-10-12T05:40:32.285Z,12.67
2022-10-12T05:43:00.551Z,12.68
2022-10-12T05:45:28.774Z,12.71
2022-10-12T05:47:56.740Z,12.77
2022-10-12T05:50:25.025Z,12.83
2022-10-12T05:52:53.331Z,12.84
2022-10-12T05:55:22.985Z,12.69
2022-10-12T05:57:52.043Z,12.81
2022-10-12T06:00:21.713Z,12.77
2022-10-12T06:02:49.834Z,12.82
2022-10-12T06:05:18.601Z,12.84
2022-10-12T06:07:46.912Z,12.77
2022-10-12T06:10:14.932Z,12.72
2022-10-12T06:12:44.565Z,12.75
2022-10-12T06:15:12.961Z,12.80
2022-10-12T06:17:41.383Z,12.81
2022-10-12T06:20:10.675Z,12.84
2022-10-12T06:22:39.172Z,12.84
2022-10-12T06:25:08.092Z,12.82
2022-10-12T06:27:36.428Z,12.85
2022-10-12T06:30:07.220Z,12.81
2022-10-12T06:32:36.747Z,12.85
2022-10-12T06:35:06.933Z,12.87
2022-10-12T06:37:49.455Z,12.95
2022-10-12T06:40:18.647Z,12.85
2022-10-12T06:42:46.944Z,12.93
2022-10-12T06:45:16.866Z,12.94
2022-10-12T06:47:46.104Z,12.92
2022-10-12T06:50:14.760Z,12.87
2022-10-12T06:52:43.730Z,12.90
2022-10-12T06:55:12.985Z,12.97
2022-10-12T06:57:43.831Z,13.00
2022-10-12T07:00:13.930Z,12.97
2022-10-12T07:02:43.834Z,13.05
2022-10-12T07:05:12.155Z,13.02
2022-10-12T07:07:41.123Z,13.02
2022-10-12T07:10:10.220Z,13.04
2022-10-12T07:12:39.699Z,13.08
2022-10-12T07:15:09.309Z,13.09
2022-10-12T07:17:37.940Z,13.09
2022-10-12T07:20:09.151Z,13.06
2022-10-12T07:22:37.475Z,13.16
2022-10-12T07:25:06.176Z,13.18
2022-10-12T07:27:34.253Z,13.21
2022-10-12T07:30:02.596Z,13.21
2022-10-12T07:32:30.651Z,13.26
2022-10-12T07:34:58.729Z,13.28
2022-10-12T07:37:28.281Z,13.33
2022-10-12T07:39:57.795Z,13.31
2022-10-12T07:42:26.352Z,13.19
2022-10-12T07:44:54.986Z,13.13
2022-10-12T07:47:23.217Z,13.21
2022-10-12T07:49:51.353Z,13.19
2022-10-12T07:52:19.594Z,13.19
2022-10-12T07:54:48.995Z,13.22
2022-10-12T07:57:17.093Z,13.31
2022-10-12T07:59:45.476Z,13.14
2022-10-12T08:02:13.770Z,13.21
2022-10-12T08:04:41.948Z,13.21
2022-10-12T08:07:10.351Z,13.31
2022-10-12T08:09:38.657Z,13.34
2022-10-12T08:12:08.696Z,13.42
2022-10-12T08:14:37.475Z,13.45
2022-10-12T08:17:06.394Z,13.48
2022-10-12T08:19:37.344Z,13.55
2022-10-12T08:22:05.931Z,13.59
2022-10-12T08:24:33.996Z,13.59
2022-10-12T08:27:02.047Z,13.64
2022-10-12T08:29:31.924Z,13.57
2022-10-12T08:32:02.172Z,13.61
2022-10-12T08:34:31.065Z,13.60
2022-10-12T08:37:02.690Z,13.62
2022-10-12T08:39:31.529Z,13.66
2022-10-12T08:42:11.069Z,13.61
2022-10-12T08:44:53.831Z,13.55
2022-10-12T08:47:36.119Z,13.62
2022-10-12T08:50:11.869Z,13.62
2022-10-12T08:52:44.365Z,13.65
2022-10-12T08:55:23.252Z,13.72
2022-10-12T08:57:51.575Z,13.73
2022-10-12T09:00:21.469Z,13.72
2022-10-12T09:03:02.017Z,13.65
2022-10-12T09:05:35.980Z,13.67
2022-10-12T09:08:10.786Z,13.63
2022-10-12T09:10:47.363Z,13.69
2022-10-12T09:13:32.225Z,13.67
2022-10-12T09:16:06.358Z,13.68
2022-10-12T09:18:41.430Z,13.73
2022-10-12T09:21:15.248Z,13.68
2022-10-12T09:23:44.555Z,13.77
2022-10-12T09:26:17.074Z,13.83
2022-10-12T09:28:49.626Z,13.91
2022-10-12T09:31:37.082Z,13.86
2022-10-12T09:34:10.117Z,13.98
2022-10-12T09:36:41.344Z,13.98
2022-10-12T09:39:17.005Z,13.93
2022-10-12T09:41:47.083Z,14.14
2022-10-12T09:44:18.284Z,14.48
2022-10-12T09:46:53.380Z,14.68
2022-10-12T09:49:22.417Z,14.78
2022-10-12T09:52:01.030Z,14.43
2022-10-12T09:54:29.919Z,14.46
2022-10-12T09:56:58.164Z,14.55
2022-10-12T09:59:30.096Z,14.47
2022-10-12T10:02:05.406Z,14.49
2022-10-12T10:04:33.624Z,14.54
2022-10-12T10:07:20.458Z,14.48
2022-10-12T10:09:49.516Z,14.42
2022-10-12T10:12:25.138Z,14.34
2022-10-12T10:14:56.784Z,14.42
2022-10-12T10:17:28.618Z,14.39
2022-10-12T10:19:59.222Z,14.38
2022-10-12T10:22:27.820Z,14.57
2022-10-12T10:25:00.396Z,14.59
2022-10-12T10:27:34.940Z,14.64
2022-10-12T10:30:33.560Z,14.67
2022-10-12T10:33:17.789Z,14.49
2022-10-12T10:35:59.893Z,14.51
2022-10-12T10:38:28.399Z,14.68
2022-10-12T10:40:58.811Z,14.62
2022-10-12T10:43:30.155Z,14.70
2022-10-12T10:46:01.229Z,14.81
2022-10-12T10:48:33.768Z,14.69
2022-10-12T10:51:04.287Z,14.79
2022-10-12T10:53:43.539Z,14.82
2022-10-12T10:56:16.012Z,14.81
2022-10-12T10:58:47.168Z,14.89
2022-10-12T11:01:23.702Z,14.93
2022-10-12T11:03:58.770Z,15.01
2022-10-12T11:06:37.485Z,15.11
2022-10-12T11:09:12.592Z,15.22
2022-10-12T11:11:44.351Z,15.31
2022-10-12T11:14:18.077Z,15.20
2022-10-12T11:16:52.773Z,15.27
2022-10-12T11:19:31.735Z,15.28
2022-10-12T11:22:04.588Z,15.42
2022-10-12T11:24:36.573Z,15.48
2022-10-12T11:27:12.141Z,15.42
2022-10-12T11:29:41.059Z,15.57
2022-10-12T11:32:27.633Z,15.31
2022-10-12T11:35:00.835Z,15.45
2022-10-12T11:37:37.499Z,15.48
2022-10-12T11:40:14.723Z,15.48
2022-10-12T11:42:43.887Z,15.53
2022-10-12T11:45:22.560Z,15.39
2022-10-12T11:47:54.594Z,15.47
2022-10-12T11:50:31.729Z,15.54
2022-10-12T11:53:02.888Z,15.61
2022-10-12T11:55:58.769Z,15.55
2022-10-12T11:58:48.903Z,15.58
2022-10-12T12:01:44.791Z,15.66
2022-10-12T12:04:44.773Z,15.60
2022-10-12T12:07:55.045Z,15.42
2022-10-12T12:10:51.758Z,15.37
2022-10-12T12:13:27.310Z,15.31
2022-10-12T12:16:32.830Z,15.26
2022-10-12T12:19:38.582Z,15.13
2022-10-12T12:22:23.568Z,15.07
2022-10-12T12:25:04.686Z,15.16
2022-10-12T12:27:39.474Z,15.21
2022-10-12T12:30:24.758Z,15.07
2022-10-12T12:32:55.528Z,15.06
2022-10-12T12:35:28.390Z,15.00
2022-10-12T12:38:20.080Z,14.92
2022-10-12T12:41:00.263Z,15.06
2022-10-12T12:43:52.457Z,14.94
2022-10-12T12:46:21.195Z,15.06
2022-10-12T12:49:00.973Z,15.13
2022-10-12T12:51:42.241Z,15.08
2022-10-12T12:54:22.973Z,15.18
2022-10-12T12:57:00.256Z,15.30
2022-10-12T12:59:56.577Z,15.15
2022-10-12T13:03:03.153Z,15.08
2022-10-12T13:06:22.015Z,15.09
2022-10-12T13:09:15.993Z,15.08
2022-10-12T13:12:06.867Z,14.99
2022-10-12T13:14:51.844Z,14.97
2022-10-12T13:17:38.875Z,14.85
2022-10-12T13:20:18.492Z,14.93
2022-10-12T13:22:48.976Z,14.99
2022-10-12T13:25:28.288Z,14.84
2022-10-12T13:27:58.102Z,14.79
2022-10-12T13:30:34.646Z,14.66
2022-10-12T13:33:11.974Z,14.74
2022-10-12T13:35:45.381Z,14.57
2022-10-12T13:38:23.157Z,14.77
2022-10-12T13:41:02.630Z,14.82
2022-10-12T13:43:35.534Z,14.88
2022-10-12T13:46:06.888Z,14.65
2022-10-12T13:48:58.347Z,14.55
2022-10-12T13:51:27.925Z,14.75
2022-10-12T13:53:57.220Z,14.73
2022-10-12T13:56:28.141Z,14.71
2022-10-12T13:59:04.299Z,14.58
2022-10-12T14:01:49.249Z,14.77
2022-10-12T14:04:18.098Z,14.86
2022-10-12T14:06:52.287Z,14.93
2022-10-12T14:09:25.371Z,14.80
2022-10-12T14:11:56.064Z,14.78
2022-10-12T14:14:31.462Z,14.82
2022-10-12T14:17:16.078Z,14.82
2022-10-12T14:19:48.120Z,14.87
2022-10-12T14:22:22.809Z,14.92
2022-10-12T14:24:52.591Z,14.92
2022-10-12T14:27:25.175Z,14.86
2022-10-12T14:30:02.538Z,14.90
2022-10-12T14:32:59.690Z,14.93
2022-10-12T14:35:29.679Z,14.84
2022-10-12T14:37:59.329Z,14.89
2022-10-12T14:40:34.586Z,14.83
2022-10-12T14:43:24.430Z,14.74
2022-10-12T14:45:53.657Z,14.70
2022-10-12T14:48:24.136Z,14.52
2022-10-12T14:50:52.734Z,14.63
2022-10-12T14:53:22.656Z,14.66
2022-10-12T14:55:53.811Z,14.69
2022-10-12T14:58:23.184Z,14.64
2022-10-12T15:01:00.978Z,14.53
2022-10-12T15:03:31.506Z,14.54
2022-10-12T15:05:59.920Z,14.54
2022-10-12T15:08:28.560Z,14.53
2022-10-12T15:10:56.930Z,14.59
2022-10-12T15:13:25.181Z,14.56
2022-10-12T15:15:55.771Z,14.57
2022-10-12T15:18:23.995Z,14.60
2022-10-12T15:20:53.966Z,14.61
2022-10-12T15:23:22.441Z,14.60
2022-10-12T15:25:52.936Z,14.46
2022-10-12T15:28:21.608Z,14.54
2022-10-12T15:33:39.156Z,14.48
2022-10-12T15:36:10.551Z,14.50
2022-10-12T15:38:38.981Z,14.54
2022-10-12T15:41:18.665Z,14.49
2022-10-12T15:43:47.525Z,14.47
2022-10-12T15:46:15.684Z,14.45
2022-10-12T15:48:44.328Z,14.40
2022-10-12T15:51:19.424Z,14.43
2022-10-12T15:53:47.964Z,14.42
2022-10-12T15:56:17.503Z,14.42
2022-10-12T15:58:49.296Z,14.39
2022-10-12T16:01:19.757Z,14.36
2022-10-12T16:03:48.889Z,14.41
2022-10-12T16:06:19.041Z,14.38
2022-10-12T16:08:47.534Z,14.33
2022-10-12T16:11:17.545Z,14.31
2022-10-12T16:13:53.850Z,14.32
2022-10-12T16:16:25.566Z,14.28
2022-10-12T16:18:54.396Z,14.29
2022-10-12T16:21:31.782Z,14.28
2022-10-12T16:24:00.211Z,14.33
2022-10-12T16:26:30.094Z,14.24
2022-10-12T16:28:58.618Z,14.34
2022-10-12T16:31:27.051Z,14.29
2022-10-12T16:33:55.281Z,14.23
2022-10-12T16:36:23.453Z,14.21
2022-10-12T16:38:53.345Z,14.22
2022-10-12T16:41:21.416Z,14.14
2022-10-12T16:43:49.821Z,14.20
2022-10-12T16:46:19.278Z,14.13
2022-10-12T16:48:49.010Z,14.10
2022-10-12T16:51:17.211Z,14.11
2022-10-12T16:53:45.527Z,14.11
2022-10-12T16:56:15.198Z,14.09
2022-10-12T16:58:43.341Z,14.06
2022-10-12T17:01:12.981Z,14.06
2022-10-12T17:03:42.107Z,14.05
2022-10-12T17:06:10.921Z,13.93
2022-10-12T17:08:42.761Z,13.98
2022-10-12T17:11:13.502Z,14.01
2022-10-12T17:13:48.187Z,14.00
2022-10-12T17:16:35.249Z,13.94
2022-10-12T17:19:04.705Z,13.91
2022-10-12T17:21:32.874Z,13.98
2022-10-12T17:24:02.130Z,14.02
2022-10-12T17:26:30.908Z,13.99
2022-10-12T17:29:00.407Z,14.05
2022-10-12T17:31:28.824Z,14.08
2022-10-12T17:33:58.793Z,14.08
2022-10-12T17:36:28.557Z,14.08
2022-10-12T17:38:58.125Z,14.10
2022-10-12T17:41:29.503Z,14.05
2022-10-12T17:43:58.526Z,14.09
2022-10-12T17:46:28.227Z,14.02
2022-10-12T17:48:57.350Z,14.06
2022-10-12T17:51:39.178Z,14.11
2022-10-12T17:54:08.052Z,14.13
2022-10-12T17:56:37.777Z,14.07
2022-10-12T17:59:06.376Z,14.03
2022-10-12T18:01:36.351Z,14.09
2022-10-12T18:04:05.714Z,14.15
2022-10-12T18:06:35.179Z,14.18
2022-10-12T18:09:05.275Z,14.09
2022-10-12T18:11:33.764Z,14.20
2022-10-12T18:18:27.206Z,14.17
2022-10-12T18:20:55.542Z,14.14
2022-10-12T18:23:24.112Z,14.24
2022-10-12T18:25:52.512Z,14.23
2022-10-12T18:28:20.558Z,14.23
2022-10-12T18:30:50.367Z,14.24
2022-10-12T18:33:20.296Z,14.10
2022-10-12T18:35:50.167Z,14.14
2022-10-12T18:38:18.771Z,14.12
2022-10-12T18:40:49.325Z,14.15
2022-10-12T18:43:17.638Z,14.17
2022-10-12T18:45:46.613Z,14.07
2022-10-12T18:48:17.303Z,14.01
2022-10-12T18:50:46.146Z,14.10
2022-10-12T18:53:16.044Z,14.11
2022-10-12T18:55:44.398Z,14.16
2022-10-12T18:58:12.971Z,14.03
2022-10-12T19:00:41.910Z,14.06
2022-10-12T19:03:14.860Z,14.01
2022-10-12T19:05:43.971Z,13.67
2022-10-12T19:08:16.702Z,13.97
2022-10-12T19:10:45.050Z,14.15
2022-10-12T19:13:13.282Z,14.21
2022-10-12T19:15:41.910Z,14.16
2022-10-12T19:18:10.166Z,14.07
2022-10-12T19:20:39.926Z,14.01
2022-10-12T19:23:08.521Z,14.01
2022-10-12T19:25:40.086Z,14.00
2022-10-12T19:28:08.417Z,13.97
2022-10-12T19:30:39.269Z,13.95
2022-10-12T19:33:07.391Z,13.95
2022-10-12T19:35:40.245Z,13.92
2022-10-12T19:38:08.700Z,13.85
2022-10-12T19:40:37.974Z,13.93
2022-10-12T19:43:08.024Z,13.93
2022-10-12T19:45:41.105Z,13.92
2022-10-12T19:48:10.009Z,13.96
2022-10-12T19:50:38.638Z,13.98
2022-10-12T19:53:07.305Z,13.96
2022-10-12T19:55:39.011Z,13.96
2022-10-12T19:58:09.869Z,13.92
2022-10-12T20:00:38.787Z,13.98
2022-10-12T20:03:06.906Z,13.98
2022-10-12T20:05:35.844Z,13.98
2022-10-12T20:08:04.620Z,13.95
2022-10-12T20:10:32.843Z,13.98
2022-10-12T20:13:01.147Z,14.00
2022-10-12T20:15:37.318Z,14.00
2022-10-12T20:18:06.137Z,13.99
2022-10-12T20:20:43.866Z,13.96
2022-10-12T20:23:12.440Z,13.93
2022-10-12T20:25:42.545Z,13.94
2022-10-12T20:28:14.162Z,13.94
2022-10-12T20:30:44.160Z,13.93
2022-10-12T20:33:12.443Z,13.97
2022-10-12T20:35:47.378Z,13.94
2022-10-12T20:38:15.700Z,13.95
2022-10-12T20:40:43.993Z,13.98
2022-10-12T20:43:12.334Z,14.00
2022-10-12T20:45:40.818Z,14.01
2022-10-12T20:48:12.549Z,13.94
2022-10-12T20:50:42.338Z,14.00
2022-10-12T20:53:11.186Z,13.90
2022-10-12T20:55:40.828Z,13.90
2022-10-12T20:58:09.987Z,13.95
2022-10-12T21:00:40.744Z,13.98
2022-10-12T21:03:11.606Z,13.94
2022-10-12T21:05:42.797Z,14.00
2022-10-12T21:08:13.921Z,14.02
2022-10-12T21:10:47.856Z,14.02
2022-10-12T21:13:16.136Z,14.01
2022-10-12T21:15:51.455Z,14.01
2022-10-12T21:18:21.499Z,14.03
2022-10-12T21:20:57.129Z,13.99
2022-10-12T21:23:25.550Z,13.98
2022-10-12T21:25:54.391Z,14.02
2022-10-12T21:28:23.703Z,14.01
2022-10-12T21:30:52.530Z,13.95
2022-10-12T21:33:22.524Z,13.98
2022-10-12T21:35:50.875Z,13.95
2022-10-12T21:38:19.282Z,13.98
2022-10-12T21:40:49.055Z,13.99
2022-10-12T21:43:17.291Z,13.92
2022-10-12T21:45:45.589Z,14.00
2022-10-12T21:48:13.765Z,14.02
2022-10-12T21:50:43.464Z,13.94
2022-10-12T21:53:11.726Z,13.95
2022-10-12T21:55:39.979Z,13.92
2022-10-12T21:58:10.136Z,13.95
2022-10-12T22:00:40.358Z,13.93
2022-10-12T22:03:11.004Z,13.90
2022-10-12T22:05:41.027Z,13.84
2022-10-12T22:08:13.786Z,13.86
2022-10-12T22:10:42.292Z,13.87
2022-10-12T22:13:10.813Z,13.88
2022-10-12T22:15:39.083Z,13.86
2022-10-12T22:18:07.564Z,13.91
2022-10-12T22:20:37.595Z,13.86
2022-10-12T22:23:06.343Z,13.81
2022-10-12T22:25:36.132Z,13.76
2022-10-12T22:28:04.560Z,13.77
2022-10-12T22:30:32.745Z,13.74
2022-10-12T22:33:01.189Z,13.72
2022-10-12T22:35:29.324Z,13.73
2022-10-12T22:37:57.463Z,13.80
2022-10-12T22:40:25.895Z,13.77
2022-10-12T22:42:55.627Z,13.72
2022-10-12T22:45:28.069Z,13.77
2022-10-12T22:47:56.756Z,13.73
2022-10-12T22:50:25.037Z,13.75
2022-10-12T22:52:53.222Z,13.69
2022-10-12T22:55:21.519Z,13.62
2022-10-12T22:57:49.638Z,13.66
2022-10-12T23:00:19.566Z,13.63
2022-10-12T23:02:48.374Z,13.68
2022-10-12T23:05:16.765Z,13.62
2022-10-12T23:07:44.998Z,13.63
2022-10-12T23:10:13.635Z,13.63
2022-10-12T23:12:41.888Z,13.61
2022-10-12T23:15:13.770Z,13.54
2022-10-12T23:17:44.182Z,13.48
2022-10-12T23:20:13.123Z,13.54
2022-10-12T23:22:43.714Z,13.49
2022-10-12T23:25:12.106Z,13.44
2022-10-12T23:27:40.203Z,13.39
2022-10-12T23:30:16.533Z,13.34
2022-10-12T23:32:46.132Z,13.35
2022-10-12T23:35:14.467Z,13.39
2022-10-12T23:37:44.283Z,13.33
2022-10-12T23:40:13.784Z,13.28
2022-10-12T23:42:42.095Z,13.34
2022-10-12T23:45:13.369Z,13.30
2022-10-12T23:47:41.670Z,13.32
2022-10-12T23:50:14.452Z,13.32
2022-10-12T23:52:42.495Z,13.31
2022-10-12T23:55:11.457Z,13.31
2022-10-12T23:57:47.002Z,13.25
